createdAt,value
2017-09-15T00:02:02.066Z,88.20
2017-09-15T00:04:30.237Z,88.50
2017-09-15T00:06:57.710Z,88.20
2017-09-15T00:09:25.171Z,87.70
2017-09-15T00:11:52.649Z,87.50
2017-09-15T00:14:20.141Z,87.20
2017-09-15T00:16:48.389Z,87.00
2017-09-15T00:19:15.867Z,87.00
2017-09-15T00:21:44.116Z,86.80
2017-09-15T00:24:11.658Z,86.70
2017-09-15T00:26:39.121Z,86.40
2017-09-15T00:29:06.593Z,86.30
2017-09-15T00:31:34.082Z,86.20
2017-09-15T00:34:02.297Z,86.20
2017-09-15T00:36:29.799Z,86.10
2017-09-15T00:38:57.298Z,85.90
2017-09-15T00:41:24.778Z,86.20
2017-09-15T00:43:52.237Z,86.40
2017-09-15T00:46:19.726Z,85.60
2017-09-15T00:48:47.957Z,86.10
2017-09-15T00:51:15.558Z,86.00
2017-09-15T00:53:43.125Z,85.80
2017-09-15T00:56:11.349Z,85.50
2017-09-15T00:58:38.826Z,86.00
2017-09-15T01:01:06.289Z,86.00
2017-09-15T01:03:33.769Z,86.00
2017-09-15T01:06:02.750Z,86.30
2017-09-15T01:08:30.219Z,86.30
2017-09-15T01:10:58.449Z,86.20
2017-09-15T01:13:25.920Z,86.20
2017-09-15T01:15:53.450Z,86.20
2017-09-15T01:18:20.910Z,86.80
2017-09-15T01:20:48.389Z,86.70
2017-09-15T01:23:15.877Z,86.90
2017-09-15T01:25:43.465Z,86.70
2017-09-15T01:28:10.955Z,86.50
2017-09-15T01:30:38.425Z,86.50
2017-09-15T01:33:05.905Z,86.80
2017-09-15T01:35:33.373Z,86.80
2017-09-15T01:38:01.627Z,87.10
2017-09-15T01:40:29.113Z,87.10
2017-09-15T01:42:57.482Z,87.30
2017-09-15T01:45:25.705Z,87.60
2017-09-15T01:47:53.213Z,87.60
2017-09-15T01:50:21.442Z,87.80
2017-09-15T01:52:48.945Z,87.80
2017-09-15T01:55:17.192Z,87.50
2017-09-15T01:57:44.652Z,87.50
2017-09-15T02:00:12.134Z,87.60
2017-09-15T02:02:40.373Z,87.80
2017-09-15T02:05:07.960Z,87.80
2017-09-15T02:07:35.563Z,87.80
2017-09-15T02:10:03.021Z,87.70
2017-09-15T02:12:30.641Z,88.00
2017-09-15T02:14:58.873Z,88.00
2017-09-15T02:17:26.341Z,87.90
2017-09-15T02:19:53.800Z,88.00
2017-09-15T02:22:21.270Z,88.00
2017-09-15T02:24:48.805Z,88.00
2017-09-15T02:27:16.284Z,88.20
2017-09-15T02:29:43.773Z,88.70
2017-09-15T02:32:11.253Z,88.10
2017-09-15T02:34:38.906Z,88.10
2017-09-15T02:37:06.376Z,88.30
2017-09-15T02:39:33.849Z,88.10
2017-09-15T02:42:01.317Z,88.10
2017-09-15T02:44:28.834Z,87.80
2017-09-15T02:46:56.321Z,88.10
2017-09-15T02:49:23.786Z,88.10
2017-09-15T02:51:51.260Z,88.10
2017-09-15T02:54:18.738Z,88.00
2017-09-15T02:56:46.967Z,88.40
2017-09-15T02:59:14.503Z,88.30
2017-09-15T03:01:41.966Z,88.30
2017-09-15T03:04:09.449Z,88.10
2017-09-15T03:06:37.026Z,88.20
2017-09-15T03:09:04.589Z,88.30
2017-09-15T03:11:32.061Z,88.10
2017-09-15T03:14:00.301Z,88.10
2017-09-15T03:16:27.757Z,88.10
2017-09-15T03:18:55.242Z,88.20
2017-09-15T03:21:23.481Z,88.70
2017-09-15T03:23:50.958Z,88.60
2017-09-15T03:26:19.944Z,88.30
2017-09-15T03:28:47.417Z,88.30
2017-09-15T03:31:14.886Z,88.00
2017-09-15T03:33:43.158Z,87.80
2017-09-15T03:36:11.397Z,87.70
2017-09-15T03:38:38.877Z,87.60
2017-09-15T03:41:06.360Z,87.60
2017-09-15T03:43:34.590Z,87.90
2017-09-15T03:46:02.066Z,87.80
2017-09-15T03:48:29.521Z,87.70
2017-09-15T03:50:57.085Z,87.80
2017-09-15T03:53:24.575Z,88.20
2017-09-15T03:55:52.034Z,87.90
2017-09-15T03:58:19.502Z,87.90
2017-09-15T04:00:47.006Z,87.90
2017-09-15T04:03:14.478Z,88.00
2017-09-15T04:05:42.726Z,87.90
2017-09-15T04:08:10.180Z,87.90
2017-09-15T04:10:37.659Z,87.80
2017-09-15T04:13:05.117Z,88.00
2017-09-15T04:15:33.362Z,88.70
2017-09-15T04:18:00.838Z,88.10
2017-09-15T04:20:28.425Z,87.90
2017-09-15T04:22:56.666Z,88.10
2017-09-15T04:25:24.143Z,88.10
2017-09-15T04:27:51.638Z,87.90
2017-09-15T04:30:19.129Z,88.20
2017-09-15T04:32:46.604Z,88.10
2017-09-15T04:35:14.061Z,88.00
2017-09-15T04:37:41.542Z,88.00
2017-09-15T04:40:09.769Z,88.10
2017-09-15T04:42:37.252Z,88.10
2017-09-15T04:45:04.774Z,88.30
2017-09-15T04:47:32.359Z,88.20
2017-09-15T04:49:59.829Z,88.40
2017-09-15T04:52:27.327Z,89.40
2017-09-15T04:54:54.838Z,88.90
2017-09-15T04:57:22.313Z,89.00
2017-09-15T04:59:50.554Z,89.00
2017-09-15T05:02:18.017Z,89.00
2017-09-15T05:04:45.487Z,88.90
2017-09-15T05:07:12.958Z,88.90
2017-09-15T05:09:41.209Z,89.00
2017-09-15T05:12:08.674Z,89.10
2017-09-15T05:14:36.145Z,89.20
2017-09-15T05:17:04.383Z,89.10
2017-09-15T05:19:31.872Z,89.10
2017-09-15T05:21:59.332Z,89.00
2017-09-15T05:24:27.576Z,89.20
2017-09-15T05:26:55.233Z,89.20
2017-09-15T05:29:22.715Z,89.10
2017-09-15T05:31:50.174Z,88.90
2017-09-15T05:34:18.444Z,89.20
2017-09-15T05:36:45.922Z,88.90
2017-09-15T05:39:14.178Z,89.10
2017-09-15T05:41:41.693Z,89.00
2017-09-15T05:44:09.258Z,89.50
2017-09-15T05:46:36.746Z,88.30
2017-09-15T05:49:04.230Z,88.10
2017-09-15T05:51:33.457Z,88.30
2017-09-15T05:54:00.970Z,88.30
2017-09-15T05:56:28.442Z,88.70
2017-09-15T05:58:56.779Z,88.90
2017-09-15T06:01:24.258Z,88.90
2017-09-15T06:03:52.506Z,88.60
2017-09-15T06:06:20.097Z,88.50
2017-09-15T06:08:48.676Z,88.90
2017-09-15T06:11:16.910Z,88.20
2017-09-15T06:13:44.404Z,88.90
2017-09-15T06:16:11.877Z,88.70
2017-09-15T06:18:40.102Z,88.10
2017-09-15T06:21:07.592Z,88.70
2017-09-15T06:23:35.242Z,87.80
2017-09-15T06:26:02.697Z,88.40
2017-09-15T06:28:30.189Z,87.30
2017-09-15T06:31:01.936Z,86.60
2017-09-15T06:33:30.233Z,86.40
2017-09-15T06:35:58.477Z,86.80
2017-09-15T06:38:27.473Z,87.00
2017-09-15T06:40:55.541Z,87.00
2017-09-15T06:43:23.172Z,86.80
2017-09-15T06:45:50.657Z,86.10
2017-09-15T06:48:18.118Z,86.70
2017-09-15T06:50:45.580Z,86.80
2017-09-15T06:53:13.581Z,86.20
2017-09-15T06:55:41.061Z,86.20
2017-09-15T06:58:08.581Z,86.30
2017-09-15T07:00:36.836Z,86.10
2017-09-15T07:03:04.298Z,86.10
2017-09-15T07:05:32.541Z,85.90
2017-09-15T07:08:00.017Z,85.90
2017-09-15T07:10:27.494Z,85.70
2017-09-15T07:12:54.986Z,86.20
2017-09-15T07:15:22.481Z,86.00
2017-09-15T07:17:50.135Z,85.70
2017-09-15T07:20:17.646Z,85.90
2017-09-15T07:22:45.159Z,85.50
2017-09-15T07:25:14.116Z,85.50
2017-09-15T07:27:41.598Z,85.50
2017-09-15T07:30:09.053Z,86.20
2017-09-15T07:32:36.529Z,86.10
2017-09-15T07:35:04.002Z,85.30
2017-09-15T07:37:32.244Z,86.00
2017-09-15T07:39:59.774Z,85.80
2017-09-15T07:42:27.478Z,85.90
2017-09-15T07:44:55.368Z,86.50
2017-09-15T07:47:22.964Z,86.80
2017-09-15T07:49:50.462Z,87.40
2017-09-15T07:52:18.698Z,87.10
2017-09-15T07:54:46.173Z,87.10
2017-09-15T07:57:13.628Z,88.00
2017-09-15T07:59:41.317Z,86.80
2017-09-15T08:02:09.550Z,86.40
2017-09-15T08:04:37.009Z,85.80
2017-09-15T08:07:04.496Z,86.00
2017-09-15T08:09:31.979Z,84.90
2017-09-15T08:12:00.229Z,85.20
2017-09-15T08:14:27.688Z,85.90
2017-09-15T08:16:55.170Z,84.40
2017-09-15T08:19:23.404Z,85.30
2017-09-15T08:21:50.876Z,85.30
2017-09-15T08:24:18.464Z,85.50
2017-09-15T08:26:45.998Z,84.50
2017-09-15T08:29:13.462Z,85.10
2017-09-15T08:31:41.700Z,85.40
2017-09-15T08:34:09.201Z,85.30
2017-09-15T08:36:37.434Z,85.90
2017-09-15T08:39:04.922Z,85.80
2017-09-15T08:41:33.175Z,85.30
2017-09-15T08:44:00.665Z,85.30
2017-09-15T08:46:28.902Z,85.10
2017-09-15T08:48:56.361Z,85.10
2017-09-15T08:51:23.912Z,85.40
2017-09-15T08:53:51.465Z,85.80
2017-09-15T08:56:18.928Z,86.50
2017-09-15T08:58:46.398Z,86.80
2017-09-15T09:01:13.915Z,87.10
2017-09-15T09:03:42.201Z,86.80
2017-09-15T09:06:09.674Z,86.70
2017-09-15T09:08:37.163Z,85.20
2017-09-15T09:11:04.671Z,86.70
2017-09-15T09:13:32.141Z,87.60
2017-09-15T09:15:59.617Z,88.10
2017-09-15T09:18:27.099Z,88.20
2017-09-15T09:20:55.357Z,89.10
2017-09-15T09:23:22.827Z,89.10
2017-09-15T09:25:51.068Z,88.80
2017-09-15T09:28:18.562Z,88.80
2017-09-15T09:30:46.800Z,88.50
2017-09-15T09:33:14.281Z,88.50
2017-09-15T09:35:41.746Z,88.30
2017-09-15T09:38:09.990Z,86.90
2017-09-15T09:40:37.473Z,86.20
2017-09-15T09:43:04.954Z,85.00
2017-09-15T09:45:33.184Z,83.40
2017-09-15T09:48:00.741Z,83.40
2017-09-15T09:50:28.205Z,83.80
2017-09-15T09:52:55.682Z,82.60
2017-09-15T09:55:23.167Z,80.40
2017-09-15T09:57:50.645Z,79.30
2017-09-15T10:00:18.133Z,78.20
2017-09-15T10:02:45.671Z,77.80
2017-09-15T10:05:13.735Z,77.90
2017-09-15T10:07:41.197Z,75.90
2017-09-15T10:10:08.677Z,74.90
2017-09-15T10:12:36.134Z,76.40
2017-09-15T10:15:03.614Z,72.80
2017-09-15T10:17:31.852Z,72.00
2017-09-15T10:19:59.317Z,72.00
2017-09-15T10:22:26.793Z,74.60
2017-09-15T10:24:54.262Z,72.30
2017-09-15T10:27:23.288Z,70.70
2017-09-15T10:29:50.773Z,70.70
2017-09-15T10:32:18.236Z,70.90
2017-09-15T10:34:45.713Z,72.30
2017-09-15T10:37:13.947Z,72.50
2017-09-15T10:39:41.416Z,72.60
2017-09-15T10:42:08.898Z,74.80
2017-09-15T10:44:36.348Z,75.10
2017-09-15T10:47:04.593Z,73.60
2017-09-15T10:49:32.064Z,73.70
2017-09-15T10:51:59.651Z,72.40
2017-09-15T10:54:27.109Z,72.80
2017-09-15T10:56:55.345Z,74.10
2017-09-15T10:59:28.530Z,74.10
2017-09-15T11:01:56.008Z,72.60
2017-09-15T11:04:23.474Z,73.30
2017-09-15T11:06:50.945Z,71.20
2017-09-15T11:09:19.205Z,70.00
2017-09-15T11:11:46.674Z,70.00
2017-09-15T11:14:14.937Z,72.50
2017-09-15T11:16:42.411Z,72.60
2017-09-15T11:19:10.640Z,76.40
2017-09-15T11:21:38.117Z,75.70
2017-09-15T11:24:05.580Z,73.90
2017-09-15T11:26:33.066Z,73.70
2017-09-15T11:29:01.784Z,69.10
2017-09-15T11:31:29.276Z,69.00
2017-09-15T11:33:56.739Z,69.20
2017-09-15T11:36:24.198Z,72.00
2017-09-15T11:38:53.216Z,71.30
2017-09-15T11:41:21.510Z,71.70
2017-09-15T11:43:48.981Z,71.70
2017-09-15T11:46:16.442Z,68.60
2017-09-15T11:48:43.918Z,70.00
2017-09-15T11:51:11.414Z,70.30
2017-09-15T11:53:39.653Z,71.70
2017-09-15T11:56:07.697Z,71.50
2017-09-15T11:58:35.153Z,70.60
2017-09-15T12:01:02.636Z,68.70
2017-09-15T12:03:30.139Z,67.30
2017-09-15T12:05:58.371Z,65.10
2017-09-15T12:08:25.847Z,65.10
2017-09-15T12:10:53.319Z,66.60
2017-09-15T12:13:21.557Z,66.00
2017-09-15T12:15:49.040Z,66.00
2017-09-15T12:18:20.488Z,66.70
2017-09-15T12:20:49.485Z,66.70
2017-09-15T12:23:16.949Z,66.70
2017-09-15T12:25:45.186Z,60.40
2017-09-15T12:28:12.647Z,60.30
2017-09-15T12:30:40.120Z,61.50
2017-09-15T12:33:07.590Z,61.90
2017-09-15T12:35:35.248Z,60.80
2017-09-15T12:38:02.766Z,61.10
2017-09-15T12:40:30.322Z,61.60
2017-09-15T12:42:57.785Z,62.80
2017-09-15T12:45:25.255Z,58.80
2017-09-15T12:47:52.734Z,59.80
2017-09-15T12:50:20.256Z,61.50
2017-09-15T12:52:47.722Z,60.70
2017-09-15T12:55:15.296Z,59.10
2017-09-15T12:57:42.766Z,59.10
2017-09-15T13:00:10.266Z,58.10
2017-09-15T13:02:37.747Z,57.60
2017-09-15T13:05:05.246Z,56.70
2017-09-15T13:07:33.722Z,57.10
2017-09-15T13:10:01.223Z,57.10
2017-09-15T13:12:28.695Z,58.80
2017-09-15T13:14:56.154Z,59.10
2017-09-15T13:17:23.650Z,59.30
2017-09-15T13:19:51.110Z,58.60
2017-09-15T13:22:19.350Z,58.20
2017-09-15T13:24:46.805Z,58.20
2017-09-15T13:27:14.278Z,57.80
2017-09-15T13:29:41.762Z,57.70
2017-09-15T13:32:09.309Z,57.40
2017-09-15T13:34:36.775Z,58.00
2017-09-15T13:37:04.997Z,57.80
2017-09-15T13:39:32.503Z,57.80
2017-09-15T13:42:00.825Z,58.60
2017-09-15T13:44:28.332Z,57.90
2017-09-15T13:46:56.557Z,57.10
2017-09-15T13:49:24.041Z,57.00
2017-09-15T13:51:51.525Z,59.00
2017-09-15T13:54:19.765Z,59.60
2017-09-15T13:56:47.264Z,59.50
2017-09-15T13:59:15.488Z,60.70
2017-09-15T14:01:42.965Z,60.50
2017-09-15T14:04:10.439Z,61.70
2017-09-15T14:06:38.086Z,63.20
2017-09-15T14:09:05.543Z,63.30
2017-09-15T14:11:32.998Z,63.40
2017-09-15T14:14:01.255Z,62.50
2017-09-15T14:16:28.736Z,62.50
2017-09-15T14:18:56.315Z,63.90
2017-09-15T14:21:24.541Z,63.90
2017-09-15T14:23:52.024Z,63.80
2017-09-15T14:26:20.281Z,64.30
2017-09-15T14:28:47.819Z,64.40
2017-09-15T14:31:15.280Z,62.60
2017-09-15T14:33:42.909Z,63.60
2017-09-15T14:36:11.133Z,63.40
2017-09-15T14:38:38.617Z,63.40
2017-09-15T14:41:06.087Z,60.70
2017-09-15T14:43:34.425Z,61.90
2017-09-15T14:46:01.931Z,62.00
2017-09-15T14:48:29.422Z,62.20
2017-09-15T14:50:56.877Z,64.30
2017-09-15T14:53:24.354Z,66.80
2017-09-15T14:55:51.823Z,67.70
2017-09-15T14:58:19.829Z,69.20
2017-09-15T15:00:47.316Z,70.10
2017-09-15T15:03:14.790Z,71.50
2017-09-15T15:05:42.319Z,71.70
2017-09-15T15:08:09.798Z,71.70
2017-09-15T15:10:37.273Z,73.50
2017-09-15T15:13:04.731Z,74.70
2017-09-15T15:15:32.313Z,73.70
2017-09-15T15:18:00.545Z,75.00
2017-09-15T15:20:28.035Z,75.00
2017-09-15T15:22:55.489Z,75.10
2017-09-15T15:25:22.963Z,75.30
2017-09-15T15:27:51.201Z,76.00
2017-09-15T15:30:18.662Z,75.90
2017-09-15T15:32:46.141Z,76.10
2017-09-15T15:35:14.365Z,75.20
2017-09-15T15:37:41.857Z,75.00
2017-09-15T15:40:09.330Z,75.90
2017-09-15T15:42:36.803Z,75.90
2017-09-15T15:45:05.044Z,78.00
2017-09-15T15:47:32.502Z,78.10
2017-09-15T15:49:59.989Z,76.40
2017-09-15T15:52:28.214Z,76.00
2017-09-15T15:54:55.691Z,76.00
2017-09-15T15:57:23.169Z,76.20
2017-09-15T15:59:51.403Z,72.60
2017-09-15T16:02:18.882Z,72.50
2017-09-15T16:04:46.449Z,72.60
2017-09-15T16:07:13.919Z,71.70
2017-09-15T16:09:42.168Z,72.20
2017-09-15T16:12:09.630Z,72.10
2017-09-15T16:14:37.104Z,70.70
2017-09-15T16:17:05.358Z,71.30
2017-09-15T16:19:32.822Z,71.30
2017-09-15T16:22:00.294Z,71.20
2017-09-15T16:24:28.547Z,71.10
2017-09-15T16:26:57.530Z,71.40
2017-09-15T16:29:25.065Z,71.40
2017-09-15T16:31:52.563Z,71.90
2017-09-15T16:34:20.811Z,71.80
2017-09-15T16:36:48.308Z,71.80
2017-09-15T16:39:21.443Z,71.60
2017-09-15T16:41:54.665Z,72.40
2017-09-15T16:44:28.104Z,71.50
2017-09-15T16:47:01.922Z,71.40
2017-09-15T16:49:29.873Z,71.40
2017-09-15T16:51:58.052Z,71.40
2017-09-15T16:54:25.525Z,70.70
2017-09-15T16:56:53.010Z,71.20
2017-09-15T16:59:21.323Z,73.40
2017-09-15T17:01:48.914Z,73.40
2017-09-15T17:04:16.422Z,73.90
2017-09-15T17:06:44.077Z,74.00
2017-09-15T17:09:11.718Z,74.20
2017-09-15T17:11:39.238Z,74.60
2017-09-15T17:14:06.874Z,75.30
2017-09-15T17:16:35.122Z,76.10
2017-09-15T17:19:02.706Z,76.10
2017-09-15T17:21:30.948Z,76.20
2017-09-15T17:23:58.421Z,76.20
2017-09-15T17:26:25.904Z,77.00
2017-09-15T17:28:54.185Z,78.10
2017-09-15T17:31:22.417Z,77.80
2017-09-15T17:33:49.912Z,77.80
2017-09-15T17:36:18.149Z,78.40
2017-09-15T17:38:45.691Z,78.30
2017-09-15T17:41:13.226Z,77.60
2017-09-15T17:43:41.570Z,77.40
2017-09-15T17:46:09.044Z,77.20
2017-09-15T17:48:37.814Z,77.00
2017-09-15T17:51:05.272Z,77.00
2017-09-15T17:53:32.767Z,75.60
2017-09-15T17:56:00.238Z,74.30
2017-09-15T17:58:27.766Z,73.60
2017-09-15T18:00:56.071Z,74.10
2017-09-15T18:03:23.549Z,74.10
2017-09-15T18:05:51.024Z,74.00
2017-09-15T18:08:18.481Z,73.20
2017-09-15T18:10:52.553Z,73.70
2017-09-15T18:13:20.055Z,73.10
2017-09-15T18:15:47.534Z,71.80
2017-09-15T18:18:15.766Z,72.30
2017-09-15T18:20:43.232Z,72.30
2017-09-15T18:23:10.724Z,73.20
2017-09-15T18:25:38.970Z,73.50
2017-09-15T18:28:06.437Z,73.40
2017-09-15T18:30:34.057Z,73.50
2017-09-15T18:33:01.529Z,73.60
2017-09-15T18:35:29.013Z,73.70
2017-09-15T18:37:56.497Z,73.70
2017-09-15T18:40:24.029Z,74.10
2017-09-15T18:42:51.501Z,74.50
2017-09-15T18:45:19.747Z,74.90
2017-09-15T18:47:48.005Z,74.60
2017-09-15T18:50:15.509Z,74.60
2017-09-15T18:52:43.759Z,74.50
2017-09-15T18:55:11.246Z,74.50
2017-09-15T18:57:47.403Z,75.40
2017-09-15T19:00:18.065Z,75.80
2017-09-15T19:02:45.838Z,75.80
2017-09-15T19:05:13.363Z,75.70
2017-09-15T19:07:41.710Z,75.40
2017-09-15T19:10:10.014Z,75.10
2017-09-15T19:12:37.515Z,75.10
2017-09-15T19:15:05.022Z,75.10
2017-09-15T19:17:33.289Z,75.10
2017-09-15T19:20:01.521Z,75.40
2017-09-15T19:22:29.021Z,75.40
2017-09-15T19:24:57.311Z,75.80
2017-09-15T19:27:25.783Z,75.80
2017-09-15T19:29:54.025Z,76.10
2017-09-15T19:32:21.521Z,76.00
2017-09-15T19:34:49.854Z,76.00
2017-09-15T19:37:17.662Z,76.00
2017-09-15T19:39:45.911Z,75.60
2017-09-15T19:42:13.471Z,75.60
2017-09-15T19:44:40.942Z,75.60
2017-09-15T19:47:09.267Z,75.60
2017-09-15T19:49:36.889Z,75.60
2017-09-15T19:52:05.155Z,75.50
2017-09-15T19:54:32.636Z,75.50
2017-09-15T19:57:00.116Z,76.40
2017-09-15T19:59:27.590Z,75.90
2017-09-15T20:01:55.154Z,76.10
2017-09-15T20:04:22.654Z,76.20
2017-09-15T20:06:51.744Z,76.40
2017-09-15T20:09:20.001Z,76.10
2017-09-15T20:11:47.539Z,76.10
2017-09-15T20:14:15.077Z,76.10
2017-09-15T20:16:42.553Z,77.20
2017-09-15T20:19:10.053Z,76.50
2017-09-15T20:21:38.295Z,76.80
2017-09-15T20:24:05.787Z,76.80
2017-09-15T20:26:34.497Z,76.70
2017-09-15T20:29:02.211Z,76.70
2017-09-15T20:31:29.840Z,76.20
2017-09-15T20:33:57.325Z,76.40
2017-09-15T20:36:25.163Z,76.30
2017-09-15T20:38:52.719Z,76.60
2017-09-15T20:41:20.224Z,76.20
2017-09-15T20:43:48.580Z,76.50
2017-09-15T20:46:16.151Z,76.50
2017-09-15T20:48:43.641Z,76.80
2017-09-15T20:51:11.130Z,77.10
2017-09-15T20:53:38.624Z,77.20
2017-09-15T20:56:06.118Z,77.60
2017-09-15T20:58:33.643Z,78.10
2017-09-15T21:01:02.086Z,75.90
2017-09-15T21:03:29.571Z,75.90
2017-09-15T21:05:57.061Z,75.40
2017-09-15T21:08:24.659Z,75.90
2017-09-15T21:10:52.138Z,76.50
2017-09-15T21:13:19.662Z,76.60
2017-09-15T21:15:47.375Z,76.80
2017-09-15T21:18:15.667Z,76.70
2017-09-15T21:20:43.976Z,76.80
2017-09-15T21:23:11.485Z,76.80
2017-09-15T21:25:39.757Z,76.70
2017-09-15T21:28:07.242Z,76.70
2017-09-15T21:30:34.727Z,76.90
2017-09-15T21:33:02.229Z,77.00
2017-09-15T21:35:29.755Z,77.20
2017-09-15T21:37:57.282Z,77.80
2017-09-15T21:40:25.208Z,77.10
2017-09-15T21:42:52.702Z,77.40
2017-09-15T21:45:20.279Z,77.20
2017-09-15T21:47:47.809Z,77.10
2017-09-15T21:50:15.922Z,77.50
2017-09-15T21:52:43.405Z,77.70
2017-09-15T21:55:11.699Z,77.70
2017-09-15T21:57:39.941Z,77.40
2017-09-15T22:00:07.444Z,77.30
2017-09-15T22:02:35.676Z,77.70
2017-09-15T22:05:03.243Z,78.20
2017-09-15T22:07:30.758Z,78.00
2017-09-15T22:09:58.267Z,78.80
2017-09-15T22:12:26.515Z,77.60
2017-09-15T22:14:54.008Z,77.60
2017-09-15T22:17:22.281Z,77.60
2017-09-15T22:19:50.730Z,77.90
2017-09-15T22:22:18.318Z,77.80
2017-09-15T22:24:45.842Z,78.30
2017-09-15T22:27:13.366Z,78.60
2017-09-15T22:29:41.593Z,78.50
2017-09-15T22:32:09.078Z,78.50
2017-09-15T22:34:37.335Z,78.20
2017-09-15T22:37:05.777Z,78.10
2017-09-15T22:39:33.274Z,78.50
2017-09-15T22:42:00.787Z,79.10
2017-09-15T22:44:28.315Z,78.80
2017-09-15T22:46:56.594Z,79.00
2017-09-15T22:49:24.070Z,79.00
2017-09-15T22:51:51.555Z,78.50
2017-09-15T22:54:33.006Z,78.80
2017-09-15T22:57:00.494Z,78.90
2017-09-15T22:59:27.980Z,79.40
2017-09-15T23:01:55.471Z,79.80
2017-09-15T23:04:23.785Z,79.90
2017-09-15T23:06:51.537Z,79.90
2017-09-15T23:09:19.018Z,80.10
2017-09-15T23:11:46.664Z,80.20
2017-09-15T23:14:14.279Z,79.50
2017-09-15T23:16:42.525Z,79.40
2017-09-15T23:19:10.013Z,79.30
2017-09-15T23:21:37.509Z,79.40
2017-09-15T23:24:05.022Z,78.90
2017-09-15T23:26:33.262Z,78.60
2017-09-15T23:29:01.629Z,78.60
2017-09-15T23:31:29.118Z,78.70
2017-09-15T23:33:57.367Z,79.50
2017-09-15T23:36:24.876Z,79.40
2017-09-15T23:38:53.110Z,79.90
2017-09-15T23:41:20.579Z,79.90
2017-09-15T23:43:48.060Z,80.10
2017-09-15T23:46:16.334Z,80.00
2017-09-15T23:48:44.632Z,80.00
2017-09-15T23:51:12.231Z,79.90
2017-09-15T23:53:39.896Z,79.90
2017-09-15T23:56:08.712Z,79.80
2017-09-15T23:58:37.246Z,80.20
